WXM80 ListenWXM80 Stop

You find our weather info also at:

UK Metoffice

WeatherCloud

Weather Underground

Northeastern Weather Network

AWEKAS

Citizen Weather Observer Program (CWOP)

HAMweather, WeatherForYou, PWS Weather


Weather Underground History page Text

Daily Summary for October 23, 2016 Units:  English    Metric   Both
« Previous Day
Next Day »
Daily Weekly Monthly Yearly Custom
  High: Low: Average:
Temperature: 61.9 °F 47.1 °F 53.4 °F
Dew Point: 44.4 °F 35.4 °F 39.7 °F
Humidity: 70 % 47 % 60 %
Wind Speed: 14.8 mph 0.0 mph 6.4 mph
Wind Gust: 29.0 mph - -
Wind:- - WSW
Pressure: 29.85 in 29.60 in -
Precipitation: 0.00 in    
Historical Graphs
 
 
Tabular Data for October 23, 2016
Time Temperature Dew Point Pressure Wind Wind Speed Wind Gust Humidity Rainfall Rate (Hourly)
00:00 50.0 °F 39.1 °F 29.61 in WSW 8.1 mph 19.6 mph 66 % 0.00 in
00:05 49.9 °F 38.6 °F 29.61 in NNW 8.2 mph 16.1 mph 65 % 0.00 in
00:12 49.9 °F 39.0 °F 29.61 in SW 5.6 mph 19.6 mph 66 % 0.00 in
00:17 49.9 °F 39.0 °F 29.60 in SW 6.6 mph 19.6 mph 66 % 0.00 in
00:22 49.8 °F 38.5 °F 29.61 in NW 9.2 mph 15.0 mph 65 % 0.00 in
00:25 49.8 °F 38.5 °F 29.61 in West 7.9 mph 17.3 mph 65 % 0.00 in
00:29 49.8 °F 38.5 °F 29.61 in WSW 6.9 mph 20.7 mph 65 % 0.00 in
00:31 49.8 °F 38.5 °F 29.61 in West 7.6 mph 12.7 mph 65 % 0.00 in
00:33 49.8 °F 38.1 °F 29.61 in West 8.8 mph 18.4 mph 64 % 0.00 in
00:38 49.7 °F 38.0 °F 29.61 in West 10.3 mph 15.0 mph 64 % 0.00 in
00:43 49.7 °F 38.4 °F 29.61 in West 7.8 mph 13.8 mph 65 % 0.00 in
00:45 49.7 °F 38.4 °F 29.61 in WNW 6.6 mph 13.8 mph 65 % 0.00 in
00:50 49.7 °F 38.4 °F 29.61 in NW 7.0 mph 13.8 mph 65 % 0.00 in
00:52 49.7 °F 38.4 °F 29.61 in WSW 9.1 mph 24.2 mph 65 % 0.00 in
00:57 49.6 °F 37.9 °F 29.62 in West 6.6 mph 11.5 mph 64 % 0.00 in
00:59 49.5 °F 38.2 °F 29.61 in SW 4.5 mph 23.0 mph 65 % 0.00 in
01:04 49.4 °F 37.7 °F 29.61 in NW 8.6 mph 19.6 mph 64 % 0.00 in
01:05 49.4 °F 37.7 °F 29.62 in SW 9.6 mph 19.6 mph 64 % 0.00 in
01:09 49.4 °F 37.7 °F 29.62 in SW 10.5 mph 19.6 mph 64 % 0.00 in
01:12 49.4 °F 38.1 °F 29.62 in West 8.6 mph 17.3 mph 65 % 0.00 in
01:14 49.3 °F 38.0 °F 29.62 in WNW 9.4 mph 18.4 mph 65 % 0.00 in
01:19 49.3 °F 37.6 °F 29.62 in WSW 13.0 mph 18.0 mph 64 % 0.00 in
01:24 49.2 °F 37.5 °F 29.62 in NNE 7.3 mph 12.7 mph 64 % 0.00 in
01:25 49.2 °F 37.5 °F 29.62 in WSW 8.8 mph 19.6 mph 64 % 0.00 in
01:28 49.2 °F 37.5 °F 29.62 in WSW 8.9 mph 16.1 mph 64 % 0.00 in
01:33 49.2 °F 37.9 °F 29.62 in WSW 9.0 mph 19.6 mph 65 % 0.00 in
01:38 49.1 °F 37.8 °F 29.62 in WSW 7.9 mph 15.0 mph 65 % 0.00 in
01:41 49.1 °F 37.8 °F 29.63 in NW 6.6 mph 14.0 mph 65 % 0.00 in
01:46 49.0 °F 37.7 °F 29.63 in WSW 11.5 mph 23.0 mph 65 % 0.00 in
01:49 49.0 °F 37.7 °F 29.63 in WNW 5.1 mph 13.8 mph 65 % 0.00 in
01:52 49.0 °F 37.7 °F 29.63 in WNW 10.6 mph 17.3 mph 65 % 0.00 in
01:53 49.0 °F 37.3 °F 29.63 in West 8.5 mph 20.7 mph 64 % 0.00 in
01:55 49.0 °F 37.3 °F 29.64 in West 5.1 mph 17.0 mph 64 % 0.00 in
02:00 49.0 °F 37.3 °F 29.64 in WSW 12.4 mph 18.4 mph 64 % 0.00 in
02:01 49.0 °F 36.9 °F 29.63 in WSW 11.1 mph 23.0 mph 63 % 0.00 in
02:06 49.1 °F 37.4 °F 29.64 in West 11.3 mph 19.0 mph 64 % 0.00 in
02:11 49.1 °F 37.0 °F 29.64 in West 7.8 mph 18.0 mph 63 % 0.00 in
02:16 49.2 °F 36.7 °F 29.64 in WSW 10.3 mph 19.6 mph 62 % 0.00 in
02:22 49.2 °F 37.1 °F 29.64 in West 8.0 mph 11.5 mph 63 % 0.00 in
02:24 49.2 °F 37.1 °F 29.64 in WNW 3.8 mph 21.9 mph 63 % 0.00 in
02:29 49.2 °F 36.7 °F 29.65 in WSW 6.0 mph 18.4 mph 62 % 0.00 in
02:34 49.2 °F 37.1 °F 29.65 in West 5.8 mph 14.0 mph 63 % 0.00 in
02:39 49.2 °F 37.1 °F 29.65 in SW 5.8 mph 11.5 mph 63 % 0.00 in
02:44 49.2 °F 37.1 °F 29.65 in WSW 9.9 mph 15.0 mph 63 % 0.00 in
02:49 49.2 °F 37.1 °F 29.65 in SW 6.9 mph 17.0 mph 63 % 0.00 in
02:54 49.1 °F 37.0 °F 29.65 in WSW 9.8 mph 18.4 mph 63 % 0.00 in
02:59 49.1 °F 37.0 °F 29.65 in WNW 6.5 mph 11.5 mph 63 % 0.00 in
03:04 49.0 °F 36.9 °F 29.65 in SW 7.1 mph 16.1 mph 63 % 0.00 in
03:10 49.0 °F 36.9 °F 29.65 in WNW 7.4 mph 13.8 mph 63 % 0.00 in
03:15 48.9 °F 36.9 °F 29.64 in SW 10.2 mph 19.6 mph 63 % 0.00 in
03:20 48.9 °F 36.4 °F 29.65 in WSW 8.3 mph 17.3 mph 62 % 0.00 in
03:25 48.9 °F 36.4 °F 29.64 in West 4.6 mph 14.0 mph 62 % 0.00 in
03:30 48.9 °F 36.4 °F 29.65 in West 10.8 mph 19.6 mph 62 % 0.00 in
03:35 48.9 °F 37.3 °F 29.65 in West 5.3 mph 10.4 mph 64 % 0.00 in
03:38 48.9 °F 37.3 °F 29.65 in WNW 8.2 mph 9.2 mph 64 % 0.00 in
03:43 48.9 °F 36.4 °F 29.65 in NW 11.0 mph 15.0 mph 62 % 0.00 in
03:48 48.9 °F 36.4 °F 29.65 in WSW 12.6 mph 18.4 mph 62 % 0.00 in
03:53 48.9 °F 36.4 °F 29.66 in West 7.2 mph 16.1 mph 62 % 0.00 in
03:58 49.0 °F 37.3 °F 29.66 in West 6.4 mph 11.5 mph 64 % 0.00 in
04:03 48.9 °F 36.4 °F 29.66 in West 12.8 mph 18.4 mph 62 % 0.00 in
04:08 48.7 °F 36.7 °F 29.66 in WSW 8.4 mph 15.0 mph 63 % 0.00 in
04:13 48.6 °F 37.0 °F 29.66 in SW 7.7 mph 12.7 mph 64 % 0.00 in
04:18 48.5 °F 37.3 °F 29.66 in NNW 6.3 mph 9.2 mph 65 % 0.00 in
04:24 48.3 °F 36.3 °F 29.66 in West 8.3 mph 11.5 mph 63 % 0.00 in
04:25 48.3 °F 36.3 °F 29.66 in SW 5.6 mph 15.0 mph 63 % 0.00 in
04:31 48.2 °F 36.2 °F 29.67 in WNW 6.7 mph 15.0 mph 63 % 0.00 in
04:36 48.1 °F 36.5 °F 29.67 in NW 6.7 mph 12.0 mph 64 % 0.00 in
04:41 48.1 °F 36.9 °F 29.67 in SW 13.8 mph 25.3 mph 65 % 0.00 in
04:46 47.9 °F 37.1 °F 29.67 in WSW 5.2 mph 9.2 mph 66 % 0.00 in
04:51 47.8 °F 37.0 °F 29.67 in WNW 8.6 mph 14.0 mph 66 % 0.00 in
04:56 47.6 °F 36.4 °F 29.67 in WSW 5.1 mph 12.7 mph 65 % 0.00 in
05:01 47.6 °F 36.8 °F 29.68 in WNW 4.4 mph 12.7 mph 66 % 0.00 in
05:06 47.5 °F 37.1 °F 29.68 in SSW 7.7 mph 17.3 mph 67 % 0.00 in
05:11 47.5 °F 36.7 °F 29.68 in WSW 5.1 mph 16.1 mph 66 % 0.00 in
05:17 47.4 °F 36.2 °F 29.68 in West 7.6 mph 18.4 mph 65 % 0.00 in
05:22 47.4 °F 35.8 °F 29.69 in West 7.9 mph 17.0 mph 64 % 0.00 in
05:27 47.4 °F 35.8 °F 29.69 in WNW 11.5 mph 17.3 mph 64 % 0.00 in
05:32 47.4 °F 36.2 °F 29.69 in West 6.0 mph 8.0 mph 65 % 0.00 in
05:37 47.4 °F 35.8 °F 29.69 in West 8.9 mph 12.7 mph 64 % 0.00 in
05:42 47.4 °F 35.4 °F 29.69 in WSW 7.9 mph 16.1 mph 63 % 0.00 in
05:47 47.4 °F 35.8 °F 29.69 in WNW 6.1 mph 16.1 mph 64 % 0.00 in
05:53 47.4 °F 35.8 °F 29.69 in West 10.1 mph 16.1 mph 64 % 0.00 in
05:58 47.4 °F 36.6 °F 29.70 in WSW 7.3 mph 12.7 mph 66 % 0.00 in
06:04 47.3 °F 36.1 °F 29.70 in WSW 5.3 mph 12.7 mph 65 % 0.00 in
06:10 47.3 °F 36.1 °F 29.70 in WNW 11.6 mph 23.0 mph 65 % 0.00 in
06:15 47.3 °F 36.1 °F 29.70 in West 3.3 mph 12.7 mph 65 % 0.00 in
06:20 47.3 °F 36.1 °F 29.70 in WSW 10.1 mph 18.4 mph 65 % 0.00 in
06:25 47.2 °F 36.0 °F 29.70 in WSW 12.7 mph 23.0 mph 65 % 0.00 in
06:30 47.2 °F 36.0 °F 29.71 in WSW 9.8 mph 19.6 mph 65 % 0.00 in
06:35 47.2 °F 35.6 °F 29.70 in West 7.4 mph 14.0 mph 64 % 0.00 in
06:40 47.2 °F 36.0 °F 29.71 in WSW 9.7 mph 19.6 mph 65 % 0.00 in
06:45 47.3 °F 36.1 °F 29.71 in SW 9.3 mph 20.7 mph 65 % 0.00 in
06:50 47.3 °F 36.1 °F 29.71 in WSW 6.5 mph 15.0 mph 65 % 0.00 in
06:55 47.3 °F 36.1 °F 29.71 in WSW 7.2 mph 17.3 mph 65 % 0.00 in
07:01 47.2 °F 36.0 °F 29.71 in SSW 6.2 mph 11.5 mph 65 % 0.00 in
07:06 47.2 °F 36.0 °F 29.72 in WSW 7.8 mph 18.4 mph 65 % 0.00 in
07:16 47.2 °F 36.0 °F 29.72 in WNW 6.0 mph 13.8 mph 65 % 0.00 in
07:22 47.2 °F 36.0 °F 29.73 in West 13.2 mph 18.4 mph 65 % 0.00 in
07:27 47.1 °F 35.9 °F 29.73 in WNW 7.0 mph 10.4 mph 65 % 0.00 in
07:32 47.2 °F 36.4 °F 29.73 in WSW 9.6 mph 15.0 mph 66 % 0.00 in
07:37 47.2 °F 36.0 °F 29.73 in WNW 3.6 mph 11.5 mph 65 % 0.00 in
07:42 47.2 °F 36.0 °F 29.73 in West 4.6 mph 8.1 mph 65 % 0.00 in
07:47 47.3 °F 36.1 °F 29.74 in West 6.2 mph 15.0 mph 65 % 0.00 in
07:52 47.3 °F 36.1 °F 29.74 in WSW 9.5 mph 15.0 mph 65 % 0.00 in
07:57 47.4 °F 36.2 °F 29.74 in SW 5.6 mph 11.0 mph 65 % 0.00 in
08:03 47.4 °F 36.2 °F 29.74 in WSW 5.8 mph 11.5 mph 65 % 0.00 in
08:08 47.5 °F 36.3 °F 29.74 in WSW 8.0 mph 15.0 mph 65 % 0.00 in
08:13 47.6 °F 36.4 °F 29.74 in SW 8.5 mph 12.0 mph 65 % 0.00 in
08:18 47.6 °F 36.8 °F 29.74 in SW 4.4 mph 15.0 mph 66 % 0.00 in
08:23 47.6 °F 36.4 °F 29.74 in WSW 9.9 mph 19.6 mph 65 % 0.00 in
08:33 47.8 °F 36.2 °F 29.75 in West 7.3 mph 19.6 mph 64 % 0.00 in
08:38 47.9 °F 36.3 °F 29.75 in SW 7.4 mph 15.0 mph 64 % 0.00 in
08:43 48.0 °F 36.0 °F 29.75 in WNW 6.7 mph 15.0 mph 63 % 0.00 in
08:48 48.1 °F 36.9 °F 29.75 in West 5.8 mph 15.0 mph 65 % 0.00 in
08:53 48.2 °F 36.6 °F 29.76 in West 8.5 mph 15.0 mph 64 % 0.00 in
08:58 48.3 °F 37.1 °F 29.76 in WSW 9.1 mph 11.5 mph 65 % 0.00 in
09:04 48.4 °F 36.4 °F 29.76 in NNW 7.1 mph 19.6 mph 63 % 0.00 in
09:16 48.8 °F 36.8 °F 29.76 in WSW 11.8 mph 17.3 mph 63 % 0.00 in
09:21 49.1 °F 36.6 °F 29.76 in West 8.9 mph 12.0 mph 62 % 0.00 in
09:26 49.4 °F 37.3 °F 29.76 in NW 7.5 mph 16.0 mph 63 % 0.00 in
09:31 49.8 °F 36.9 °F 29.76 in WNW 10.6 mph 16.0 mph 61 % 0.00 in
09:36 50.2 °F 37.3 °F 29.76 in WSW 9.7 mph 13.8 mph 61 % 0.00 in
09:41 50.5 °F 37.1 °F 29.76 in West 5.1 mph 12.7 mph 60 % 0.00 in
09:46 50.7 °F 36.9 °F 29.76 in SW 8.3 mph 12.7 mph 59 % 0.00 in
09:51 50.9 °F 37.1 °F 29.76 in SW 5.0 mph 11.5 mph 59 % 0.00 in
09:57 51.2 °F 37.4 °F 29.76 in SW 7.0 mph 19.6 mph 59 % 0.00 in
10:02 51.5 °F 37.2 °F 29.76 in SW 8.2 mph 18.4 mph 58 % 0.00 in
10:10 51.8 °F 37.5 °F 29.76 in WSW 3.9 mph 11.5 mph 58 % 0.00 in
10:15 52.1 °F 37.3 °F 29.76 in WSW 5.5 mph 8.1 mph 57 % 0.00 in
10:20 52.3 °F 38.0 °F 29.76 in West 7.5 mph 13.8 mph 58 % 0.00 in
10:25 52.6 °F 37.8 °F 29.76 in West 7.6 mph 15.0 mph 57 % 0.00 in
10:30 52.8 °F 38.0 °F 29.76 in WNW 10.4 mph 20.0 mph 57 % 0.00 in
10:35 53.1 °F 38.3 °F 29.76 in WNW 7.4 mph 11.5 mph 57 % 0.00 in
10:40 53.5 °F 39.1 °F 29.76 in WSW 8.0 mph 14.0 mph 58 % 0.00 in
10:45 53.7 °F 37.9 °F 29.76 in WNW 7.3 mph 17.3 mph 55 % 0.00 in
10:50 54.0 °F 38.2 °F 29.76 in West 7.0 mph 13.0 mph 55 % 0.00 in
10:57 54.3 °F 38.0 °F 29.76 in West 7.8 mph 19.6 mph 54 % 0.00 in
11:02 54.7 °F 37.9 °F 29.76 in WNW 6.6 mph 10.4 mph 53 % 0.00 in
11:12 55.5 °F 38.6 °F 29.76 in NW 6.5 mph 11.5 mph 53 % 0.00 in
11:17 56.0 °F 38.6 °F 29.76 in WSW 8.9 mph 13.8 mph 52 % 0.00 in
11:22 56.4 °F 38.5 °F 29.76 in West 7.1 mph 15.0 mph 51 % 0.00 in
11:27 56.8 °F 38.9 °F 29.76 in SW 5.7 mph 10.4 mph 51 % 0.00 in
11:32 57.1 °F 38.6 °F 29.76 in WNW 9.5 mph 19.6 mph 50 % 0.00 in
11:35 57.3 °F 39.8 °F 29.76 in West 5.0 mph 14.0 mph 52 % 0.00 in
11:40 57.5 °F 40.0 °F 29.75 in West 6.0 mph 20.0 mph 52 % 0.00 in
11:45 57.9 °F 39.9 °F 29.75 in West 6.0 mph 19.0 mph 51 % 0.00 in
11:50 58.1 °F 39.5 °F 29.76 in WSW 7.0 mph 16.0 mph 50 % 0.00 in
11:56 58.4 °F 40.8 °F 29.76 in SW 12.0 mph 12.0 mph 52 % 0.00 in
12:01 58.6 °F 39.5 °F 29.76 in WSW 8.1 mph 12.7 mph 49 % 0.00 in
12:06 58.8 °F 40.7 °F 29.76 in NW 8.3 mph 13.0 mph 51 % 0.00 in
12:12 59.0 °F 39.9 °F 29.75 in SW 9.5 mph 21.9 mph 49 % 0.00 in
12:18 59.0 °F 41.4 °F 29.75 in West 7.5 mph 19.6 mph 52 % 0.00 in
12:23 59.0 °F 39.9 °F 29.76 in WSW 6.9 mph 13.8 mph 49 % 0.00 in
12:28 58.9 °F 39.8 °F 29.76 in West 8.2 mph 18.4 mph 49 % 0.00 in
12:34 58.8 °F 39.7 °F 29.76 in WNW 6.7 mph 18.4 mph 49 % 0.00 in
12:39 58.8 °F 39.7 °F 29.76 in West 6.9 mph 16.1 mph 49 % 0.00 in
12:44 59.0 °F 40.9 °F 29.76 in West 5.7 mph 16.1 mph 51 % 0.00 in
12:49 59.3 °F 40.7 °F 29.76 in WNW 8.9 mph 15.0 mph 50 % 0.00 in
12:54 59.6 °F 40.9 °F 29.76 in West 8.3 mph 21.0 mph 50 % 0.00 in
12:59 59.7 °F 40.5 °F 29.75 in West 7.9 mph 18.4 mph 49 % 0.00 in
13:04 59.9 °F 40.1 °F 29.75 in WNW 9.3 mph 16.1 mph 48 % 0.00 in
13:09 60.0 °F 39.7 °F 29.75 in NW 14.8 mph 21.9 mph 47 % 0.00 in
13:14 60.1 °F 41.4 °F 29.75 in SW 7.6 mph 10.4 mph 50 % 0.00 in
13:19 60.3 °F 41.6 °F 29.75 in West 4.1 mph 8.1 mph 50 % 0.00 in
13:24 60.6 °F 40.8 °F 29.75 in WNW 9.1 mph 14.0 mph 48 % 0.00 in
13:29 60.8 °F 42.0 °F 29.75 in SW 4.9 mph 8.1 mph 50 % 0.00 in
13:34 61.1 °F 41.8 °F 29.75 in West 11.5 mph 16.1 mph 49 % 0.00 in
13:40 61.1 °F 41.8 °F 29.75 in WNW 8.5 mph 19.6 mph 49 % 0.00 in
13:45 61.3 °F 42.5 °F 29.75 in SW 6.5 mph 15.0 mph 50 % 0.00 in
13:50 61.4 °F 42.6 °F 29.75 in West 10.0 mph 20.7 mph 50 % 0.00 in
13:55 61.7 °F 43.9 °F 29.75 in West 7.9 mph 17.0 mph 52 % 0.00 in
14:00 61.9 °F 43.0 °F 29.75 in WSW 8.1 mph 18.4 mph 50 % 0.00 in
14:05 61.9 °F 42.5 °F 29.75 in SSW 5.6 mph 11.5 mph 49 % 0.00 in
14:10 61.9 °F 42.5 °F 29.76 in SW 11.4 mph 18.0 mph 49 % 0.00 in
14:15 61.8 °F 41.9 °F 29.76 in NW 10.8 mph 27.6 mph 48 % 0.00 in
14:20 61.7 °F 43.4 °F 29.76 in NW 4.8 mph 13.8 mph 51 % 0.00 in
14:25 61.7 °F 43.4 °F 29.76 in West 8.0 mph 21.0 mph 51 % 0.00 in
14:30 61.7 °F 42.3 °F 29.76 in WSW 12.0 mph 18.0 mph 49 % 0.00 in
14:35 61.5 °F 42.1 °F 29.76 in West 10.0 mph 20.0 mph 49 % 0.00 in
14:40 61.2 °F 42.4 °F 29.77 in West 13.0 mph 29.0 mph 50 % 0.00 in
14:45 61.0 °F 42.7 °F 29.77 in West 7.0 mph 18.0 mph 51 % 0.00 in
14:50 61.0 °F 42.2 °F 29.77 in West 9.0 mph 18.0 mph 50 % 0.00 in
14:55 61.1 °F 42.8 °F 29.77 in West 7.7 mph 16.1 mph 51 % 0.00 in
15:01 61.2 °F 42.9 °F 29.77 in NW 6.3 mph 21.9 mph 51 % 0.00 in
15:06 61.3 °F 43.0 °F 29.78 in WNW 7.1 mph 17.3 mph 51 % 0.00 in
15:11 61.1 °F 42.3 °F 29.78 in WNW 12.0 mph 25.3 mph 50 % 0.00 in
15:16 60.9 °F 43.1 °F 29.78 in West 5.5 mph 13.8 mph 52 % 0.00 in
15:21 60.8 °F 42.5 °F 29.78 in SW 9.6 mph 16.1 mph 51 % 0.00 in
15:31 60.5 °F 42.3 °F 29.78 in NW 11.4 mph 29.0 mph 51 % 0.00 in
15:36 60.4 °F 41.7 °F 29.78 in West 14.0 mph 23.0 mph 50 % 0.00 in
15:41 60.3 °F 41.0 °F 29.78 in West 9.9 mph 24.2 mph 49 % 0.00 in
15:52 60.4 °F 41.7 °F 29.79 in WNW 7.4 mph 22.0 mph 50 % 0.00 in
15:57 60.3 °F 42.1 °F 29.78 in SW 9.7 mph 19.6 mph 51 % 0.00 in
16:02 60.3 °F 42.1 °F 29.78 in NW 10.6 mph 20.7 mph 51 % 0.00 in
16:07 60.2 °F 42.5 °F 29.78 in West 7.9 mph 13.8 mph 52 % 0.00 in
16:12 60.2 °F 42.0 °F 29.78 in NNW 9.2 mph 13.8 mph 51 % 0.00 in
16:13 60.2 °F 42.0 °F 29.78 in WSW 8.8 mph 13.8 mph 51 % 0.00 in
16:18 60.2 °F 43.0 °F 29.78 in WSW 8.9 mph 15.0 mph 53 % 0.00 in
16:28 60.1 °F 42.9 °F 29.79 in SW 6.5 mph 10.4 mph 53 % 0.00 in
16:33 60.0 °F 42.3 °F 29.79 in NNW 5.5 mph 11.5 mph 52 % 0.00 in
16:38 60.0 °F 42.3 °F 29.79 in WSW 8.5 mph 20.7 mph 52 % 0.00 in
16:43 59.9 °F 43.2 °F 29.79 in WNW 1.7 mph 10.4 mph 54 % 0.00 in
16:48 59.8 °F 43.1 °F 29.79 in NW 5.9 mph 13.0 mph 54 % 0.00 in
16:54 59.8 °F 42.6 °F 29.79 in West 4.5 mph 9.2 mph 53 % 0.00 in
16:59 59.7 °F 42.5 °F 29.79 in WSW 3.9 mph 8.1 mph 53 % 0.00 in
17:04 59.6 °F 42.9 °F 29.80 in NW 6.1 mph 12.0 mph 54 % 0.00 in
17:09 59.5 °F 41.9 °F 29.80 in WNW 8.4 mph 19.6 mph 52 % 0.00 in
17:14 59.5 °F 41.9 °F 29.80 in WSW 8.7 mph 12.7 mph 52 % 0.00 in
17:19 59.5 °F 42.3 °F 29.80 in West 6.1 mph 15.0 mph 53 % 0.00 in
17:24 59.5 °F 41.9 °F 29.81 in WNW 6.9 mph 13.8 mph 52 % 0.00 in
17:30 59.5 °F 42.3 °F 29.81 in NW 6.8 mph 10.4 mph 53 % 0.00 in
17:35 59.5 °F 43.3 °F 29.81 in WSW 4.7 mph 13.0 mph 55 % 0.00 in
17:40 59.4 °F 42.7 °F 29.82 in WNW 9.4 mph 12.7 mph 54 % 0.00 in
17:45 59.4 °F 42.3 °F 29.82 in West 7.4 mph 11.5 mph 53 % 0.00 in
17:50 59.2 °F 42.1 °F 29.82 in WNW 7.8 mph 13.8 mph 53 % 0.00 in
17:55 59.2 °F 41.6 °F 29.82 in West 7.4 mph 17.3 mph 52 % 0.00 in
18:00 59.1 °F 42.0 °F 29.82 in NW 2.3 mph 9.2 mph 53 % 0.00 in
18:05 59.1 °F 42.0 °F 29.82 in WNW 3.1 mph 9.0 mph 53 % 0.00 in
18:10 59.0 °F 42.8 °F 29.83 in WNW 3.8 mph 9.2 mph 55 % 0.00 in
18:15 58.9 °F 42.8 °F 29.83 in WSW 3.7 mph 9.2 mph 55 % 0.00 in
18:20 58.9 °F 43.2 °F 29.83 in West 5.0 mph 9.0 mph 56 % 0.00 in
18:25 58.8 °F 42.6 °F 29.83 in West 5.0 mph 12.0 mph 55 % 0.00 in
18:30 58.7 °F 43.0 °F 29.83 in WNW 2.6 mph 6.0 mph 56 % 0.00 in
18:35 58.6 °F 43.0 °F 29.83 in WSW 1.0 mph 5.0 mph 56 % 0.00 in
18:40 58.5 °F 42.9 °F 29.83 in WSW 2.0 mph 9.0 mph 56 % 0.00 in
18:45 58.4 °F 42.8 °F 29.83 in West 1.0 mph 10.0 mph 56 % 0.00 in
18:46 58.4 °F 42.8 °F 29.83 in WSW 1.4 mph 2.3 mph 56 % 0.00 in
18:51 58.2 °F 42.6 °F 29.83 in WSW 0.8 mph 3.5 mph 56 % 0.00 in
18:56 58.1 °F 42.9 °F 29.83 in SW 2.7 mph 3.5 mph 57 % 0.00 in
19:02 58.0 °F 42.8 °F 29.84 in West 4.1 mph 6.9 mph 57 % 0.00 in
19:07 57.9 °F 43.2 °F 29.84 in SW 0.6 mph 3.5 mph 58 % 0.00 in
19:12 57.8 °F 43.6 °F 29.84 in SW 1.6 mph 3.5 mph 59 % 0.00 in
19:17 57.8 °F 44.0 °F 29.84 in SW 0.1 mph 1.0 mph 60 % 0.00 in
19:18 57.7 °F 43.9 °F 29.84 in Calm   1.2 mph 60 % 0.00 in
19:23 57.5 °F 43.7 °F 29.84 in Calm     60 % 0.00 in
19:28 57.3 °F 44.0 °F 29.84 in Calm     61 % 0.00 in
19:33 57.0 °F 43.7 °F 29.84 in Calm     61 % 0.00 in
19:39 56.6 °F 43.7 °F 29.85 in Calm     62 % 0.00 in
19:44 56.2 °F 43.3 °F 29.85 in Calm     62 % 0.00 in
19:49 55.7 °F 43.3 °F 29.85 in Calm     63 % 0.00 in
19:54 55.3 °F 42.9 °F 29.84 in Calm     63 % 0.00 in
19:59 55.0 °F 43.0 °F 29.84 in Calm     64 % 0.00 in
20:04 54.6 °F 42.7 °F 29.85 in SW 0.4 mph 1.2 mph 64 % 0.00 in
20:09 54.3 °F 42.8 °F 29.84 in SW 0.4 mph 1.2 mph 65 % 0.00 in
20:14 54.0 °F 42.5 °F 29.84 in Calm     65 % 0.00 in
20:19 53.7 °F 42.6 °F 29.84 in SW 0.1 mph 3.5 mph 66 % 0.00 in
20:22 53.6 °F 42.5 °F 29.84 in Calm     66 % 0.00 in
20:27 53.4 °F 42.7 °F 29.84 in Calm     67 % 0.00 in
20:32 53.1 °F 42.4 °F 29.84 in Calm     67 % 0.00 in
20:37 52.9 °F 43.0 °F 29.84 in Calm     69 % 0.00 in
20:42 52.7 °F 42.8 °F 29.84 in Calm     69 % 0.00 in
20:47 52.4 °F 42.5 °F 29.84 in SW 1.2 mph 2.0 mph 69 % 0.00 in
20:53 52.2 °F 42.3 °F 29.84 in Calm     69 % 0.00 in
20:58 52.1 °F 42.2 °F 29.84 in SW 0.6 mph 3.5 mph 69 % 0.00 in
21:03 51.9 °F 42.4 °F 29.84 in SW 2.3 mph 3.5 mph 70 % 0.00 in
21:08 51.8 °F 42.3 °F 29.84 in SW 2.4 mph 5.8 mph 70 % 0.00 in
21:13 51.7 °F 42.2 °F 29.84 in SW 2.0 mph 3.5 mph 70 % 0.00 in
21:18 51.7 °F 42.2 °F 29.84 in SSW 3.2 mph 8.1 mph 70 % 0.00 in
21:23 51.8 °F 42.3 °F 29.84 in South 2.3 mph 3.5 mph 70 % 0.00 in
21:28 51.8 °F 42.3 °F 29.84 in SSE 1.4 mph 4.0 mph 70 % 0.00 in
21:33 51.9 °F 42.0 °F 29.84 in SSW 0.3 mph 3.5 mph 69 % 0.00 in
21:44 52.2 °F 42.3 °F 29.84 in SSW 1.4 mph 3.5 mph 69 % 0.00 in
21:49 52.3 °F 42.4 °F 29.84 in SW 0.8 mph 3.5 mph 69 % 0.00 in
21:54 52.5 °F 42.6 °F 29.84 in SW 0.4 mph 2.3 mph 69 % 0.00 in
21:59 52.5 °F 42.6 °F 29.84 in Calm     69 % 0.00 in
22:04 52.5 °F 42.6 °F 29.84 in SW 0.3 mph 1.0 mph 69 % 0.00 in
22:09 52.5 °F 43.0 °F 29.84 in SW 0.1 mph 1.2 mph 70 % 0.00 in
22:14 52.4 °F 42.9 °F 29.84 in SSW 1.3 mph 3.5 mph 70 % 0.00 in
22:19 52.3 °F 42.8 °F 29.84 in Calm     70 % 0.00 in
22:24 52.2 °F 42.7 °F 29.84 in SW 1.2 mph 2.0 mph 70 % 0.00 in
22:30 52.1 °F 42.6 °F 29.83 in South 1.4 mph 2.3 mph 70 % 0.00 in
22:35 51.9 °F 42.4 °F 29.83 in WSW 1.9 mph 5.0 mph 70 % 0.00 in
22:40 51.9 °F 42.4 °F 29.83 in SSW 3.6 mph 6.9 mph 70 % 0.00 in
22:45 52.0 °F 42.5 °F 29.83 in West 3.1 mph 5.8 mph 70 % 0.00 in
22:50 52.1 °F 42.6 °F 29.83 in SSW 2.4 mph 5.8 mph 70 % 0.00 in
22:55 52.4 °F 42.9 °F 29.83 in SW 3.2 mph 5.8 mph 70 % 0.00 in
23:00 52.8 °F 42.9 °F 29.82 in South 1.9 mph 3.5 mph 69 % 0.00 in
23:10 53.5 °F 43.6 °F 29.82 in South 3.3 mph 6.9 mph 69 % 0.00 in
23:15 53.9 °F 43.6 °F 29.82 in SW 2.0 mph 7.0 mph 68 % 0.00 in
23:20 54.4 °F 44.0 °F 29.82 in SSW 5.0 mph 12.0 mph 68 % 0.00 in
23:30 55.0 °F 44.2 °F 29.82 in SW 3.0 mph 7.0 mph 67 % 0.00 in
23:35 55.3 °F 44.1 °F 29.82 in WSW 4.4 mph 5.8 mph 66 % 0.00 in
23:40 55.4 °F 44.2 °F 29.82 in SW 2.0 mph 6.0 mph 66 % 0.00 in
23:45 55.5 °F 44.3 °F 29.82 in SW 5.0 mph 10.0 mph 66 % 0.00 in
23:50 55.6 °F 44.4 °F 29.82 in WSW 3.9 mph 8.1 mph 66 % 0.00 in
23:55 55.6 °F 44.4 °F 29.81 in SW 6.0 mph 12.0 mph 66 % 0.00 in
Crab Meadow Weather
Compliments of Weather Underground - 3 mb

Script developed by  Jim McMurry - jmcmurry@mwt.net Adapted for the template by  Wim van der Kuil - Leuven-Template.eu

Extremes: By average annual rainfall, the wettest place in the world is Mawslynram, in Meghalaya State, India with 467 1/2 inches per annum.